Terminal Aerodrome Forecast
Issued by NWS Green Bay, WI

Home | Current Version | Previous Version | Graphics & Text | Print | Product List | Glossary On
Versions: 1 2 3 4 5 6 7 8 9 10 11 12 13 14 15 16 17 18 19 20 21 22 23 24 25 26 27 28 29 30 31 32 33 34 35 36
658
FTUS43 KGRB 051139
TAFGRB
TAF
KGRB 051139Z 0512/0612 24007KT P6SM SCT015 BKN025
      TEMPO 0512/0516 5SM BR BKN035
     FM051600 21006KT P6SM SCT015 BKN030
     FM060000 18006KT 5SM BR SCT010 BKN018 WS020/23035KT
     FM060700 18011G17KT P6SM OVC015=

USA.gov is the U.S. government's official web portal to all federal, state and local government web resources and services.